Time;durP1;ratioP1;P1;durP2;ratioP2;P2;SDS_P1;SDS_P2;PMS_P1;PMS_P2;Temp;Humidity;BMP_temperature;BMP_pressure;BME280_temperature;BME280_humidity;BME280_pressure;Samples;Min_cycle;Max_cycle;Signal;HPM_P1;HPM_P2
2022/01/07 00:00:47;;;;;;;15.85;6.63;;;;;;;1.89;94.87;101465.44;5092607;28;20111;-83
2022/01/07 00:03:12;;;;;;;16.40;6.22;;;;;;;1.89;94.17;101460.28;5092132;28;20473;-83
2022/01/07 00:05:37;;;;;;;21.35;7.13;;;;;;;1.87;95.44;101464.53;5092774;28;20035;-83
2022/01/07 00:08:03;;;;;;;13.68;6.45;;;;;;;1.88;94.95;101456.00;5092666;28;20093;-83
2022/01/07 00:10:29;;;;;;;15.23;7.35;;;;;;;1.79;96.37;101440.34;5092765;28;20021;-83
2022/01/07 00:12:54;;;;;;;16.17;6.65;;;;;;;1.73;96.55;101441.06;5082840;28;20098;-82
2022/01/07 00:15:20;;;;;;;17.85;7.25;;;;;;;1.73;94.61;101464.22;5071728;28;20472;-83
2022/01/07 00:17:46;;;;;;;16.00;6.70;;;;;;;1.72;95.15;101446.19;5088587;28;20067;-83
2022/01/07 00:20:13;;;;;;;16.95;6.85;;;;;;;1.73;95.54;101445.34;5074397;28;20078;-83
2022/01/07 00:22:40;;;;;;;14.18;6.60;;;;;;;1.64;96.71;101430.63;5073193;28;20028;-83
2022/01/07 00:25:07;;;;;;;14.88;6.05;;;;;;;1.65;95.96;101437.47;5083509;28;20031;-83
2022/01/07 00:27:32;;;;;;;15.02;6.63;;;;;;;1.56;97.77;101421.84;5074544;28;20040;-83
2022/01/07 00:29:57;;;;;;;18.58;7.15;;;;;;;1.60;96.38;101429.69;5086510;28;20031;-83
2022/01/07 00:32:22;;;;;;;16.27;7.38;;;;;;;1.51;97.97;101424.31;5092449;28;20460;-83
2022/01/07 00:34:48;;;;;;;16.52;6.70;;;;;;;1.44;99.04;101422.47;5087069;28;20028;-83
2022/01/07 00:37:13;;;;;;;15.45;6.38;;;;;;;1.44;99.21;101413.84;5091556;28;20198;-83
2022/01/07 00:39:39;;;;;;;12.65;6.32;;;;;;;1.41;99.83;101406.97;5089392;28;20473;-83
2022/01/07 00:42:05;;;;;;;18.83;7.15;;;;;;;1.39;100.00;101398.34;5076345;28;20036;-83
2022/01/07 00:44:30;;;;;;;14.50;5.95;;;;;;;1.31;100.00;101392.19;5083480;28;20024;-83
2022/01/07 00:46:55;;;;;;;15.20;6.72;;;;;;;1.35;100.00;101382.00;5086154;28;20067;-83
2022/01/07 00:49:22;;;;;;;18.08;6.13;;;;;;;1.36;100.00;101380.28;5091282;28;20032;-83
2022/01/07 00:51:48;;;;;;;16.05;7.35;;;;;;;1.29;100.00;101373.28;5072576;28;20427;-83
2022/01/07 00:54:14;;;;;;;13.18;6.60;;;;;;;1.29;100.00;101374.16;5090349;28;20044;-83
2022/01/07 00:56:39;;;;;;;18.52;7.47;;;;;;;1.29;100.00;101373.28;5091601;28;20085;-83
2022/01/07 00:59:05;;;;;;;13.95;7.60;;;;;;;1.31;100.00;101369.91;5092196;28;20032;-83
2022/01/07 01:01:30;;;;;;;14.43;6.63;;;;;;;1.33;100.00;101360.53;5090897;28;20028;-83
2022/01/07 01:03:55;;;;;;;15.82;6.72;;;;;;;1.34;100.00;101356.25;5071581;28;20025;-83
2022/01/07 01:06:20;;;;;;;13.27;6.70;;;;;;;1.35;100.00;101355.44;5071668;28;20047;-83
2022/01/07 01:08:46;;;;;;;13.90;5.70;;;;;;;1.38;99.88;101348.66;5071742;28;20056;-83
2022/01/07 01:11:11;;;;;;;10.27;5.93;;;;;;;1.42;98.11;101356.44;5091609;28;20023;-83
2022/01/07 01:13:36;;;;;;;18.13;6.13;;;;;;;1.48;97.86;101347.16;5091579;28;20024;-83
2022/01/07 01:16:01;;;;;;;14.75;4.90;;;;;;;1.47;98.43;101331.69;5091617;28;20055;-83
2022/01/07 01:18:27;;;;;;;12.10;5.53;;;;;;;1.52;99.38;101333.53;5091018;28;20028;-83
2022/01/07 01:20:52;;;;;;;12.27;4.97;;;;;;;1.57;97.87;101344.81;5092015;28;20043;-83
2022/01/07 01:23:17;;;;;;;15.30;6.53;;;;;;;1.55;98.49;101333.59;5089507;28;20528;-83
2022/01/07 01:25:43;;;;;;;12.40;5.60;;;;;;;1.62;98.44;101332.03;5091305;28;20498;-83
2022/01/07 01:28:08;;;;;;;11.52;5.40;;;;;;;1.62;98.47;101324.31;5091849;28;20031;-83
2022/01/07 01:30:35;;;;;;;12.73;5.85;;;;;;;1.61;98.38;101323.47;5090609;28;20457;-83
2022/01/07 01:33:00;;;;;;;13.75;5.72;;;;;;;1.66;97.07;101309.84;5091788;28;20027;-83
2022/01/07 01:35:26;;;;;;;14.43;5.18;;;;;;;1.70;96.50;101311.63;5091397;28;20028;-83
2022/01/07 01:37:52;;;;;;;11.10;5.32;;;;;;;1.71;97.17;101313.38;5089727;28;20092;-83
2022/01/07 01:40:19;;;;;;;12.85;5.63;;;;;;;1.71;96.19;101314.25;5088981;28;20379;-82
2022/01/07 01:42:45;;;;;;;14.45;5.80;;;;;;;1.72;96.42;101304.81;5080034;28;20024;-83
2022/01/07 01:45:15;;;;;;;12.02;5.05;;;;;;;1.71;96.01;101298.81;5091087;28;20028;-83
2022/01/07 01:47:41;;;;;;;14.70;4.88;;;;;;;1.73;97.76;101301.41;5080773;28;20469;-83
2022/01/07 01:50:08;;;;;;;14.23;4.93;;;;;;;1.70;96.62;101296.19;5085648;28;20130;-83
2022/01/07 01:52:34;;;;;;;12.80;5.40;;;;;;;1.75;95.61;101294.59;5074742;28;20063;-83
2022/01/07 01:54:59;;;;;;;13.57;5.05;;;;;;;1.77;95.50;101270.66;5083652;28;20131;-83
2022/01/07 01:57:25;;;;;;;14.60;5.15;;;;;;;1.80;95.11;101272.44;5095083;28;20422;-83
2022/01/07 01:59:50;;;;;;;9.52;4.88;;;;;;;1.69;93.83;101241.34;5082813;28;20040;-83
2022/01/07 02:02:16;;;;;;;11.70;4.63;;;;;;;1.90;93.98;101261.47;5094649;28;20081;-83
2022/01/07 02:04:41;;;;;;;9.68;4.00;;;;;;;1.94;94.02;101270.97;5089219;28;20373;-83
2022/01/07 02:07:08;;;;;;;8.02;4.07;;;;;;;1.95;94.00;101274.41;5074715;28;20056;-83
2022/01/07 02:09:35;;;;;;;11.43;3.85;;;;;;;1.95;94.02;101265.00;5081684;28;20059;-83
2022/01/07 02:12:03;;;;;;;6.80;3.88;;;;;;;1.98;93.96;101266.75;5074847;28;20384;-83
2022/01/07 02:14:28;;;;;;;12.93;4.43;;;;;;;1.96;95.47;101265.84;5074446;28;20040;-83
2022/01/07 02:16:53;;;;;;;8.50;3.53;;;;;;;2.01;93.63;101264.25;5081464;28;20483;-83
2022/01/07 02:19:19;;;;;;;10.43;3.42;;;;;;;1.97;94.10;101268.47;5094885;28;20491;-83
2022/01/07 02:21:44;;;;;;;10.90;3.85;;;;;;;1.97;94.93;101249.59;5094648;28;20032;-83
2022/01/07 02:24:09;;;;;;;7.20;3.95;;;;;;;1.91;96.27;101245.22;5080354;28;20464;-83
2022/01/07 02:26:35;;;;;;;9.23;3.88;;;;;;;1.90;96.83;101269.19;5094463;28;20075;-83
2022/01/07 02:29:01;;;;;;;9.90;3.80;;;;;;;1.81;98.38;101249.31;5094457;28;20028;-82
2022/01/07 02:31:26;;;;;;;10.80;3.63;;;;;;;1.75;98.95;101259.47;5094848;28;20020;-83
2022/01/07 02:33:53;;;;;;;8.93;4.35;;;;;;;1.67;100.00;101250.75;5094504;28;20058;-82
2022/01/07 02:36:18;;;;;;;11.55;4.35;;;;;;;1.66;100.00;101245.56;5094777;28;20031;-82
2022/01/07 02:38:43;;;;;;;12.52;4.50;;;;;;;1.62;100.00;101247.22;5077575;28;20029;-83
2022/01/07 02:41:09;;;;;;;7.95;3.88;;;;;;;1.62;100.00;101242.94;5073948;28;20456;-83
2022/01/07 02:43:34;;;;;;;6.88;3.70;;;;;;;1.45;100.00;101233.19;5074174;28;20111;-83
2022/01/07 02:45:59;;;;;;;11.50;3.92;;;;;;;1.46;100.00;101240.03;5074584;28;20024;-82
2022/01/07 02:48:25;;;;;;;11.30;4.65;;;;;;;1.40;100.00;101240.78;5073435;28;20373;-82
2022/01/07 02:50:50;;;;;;;9.30;4.43;;;;;;;1.42;100.00;101240.84;5074722;28;20024;-83
2022/01/07 02:53:15;;;;;;;13.35;5.00;;;;;;;1.33;100.00;101226.09;5081378;28;20025;-82
2022/01/07 02:55:41;;;;;;;14.98;4.97;;;;;;;1.31;100.00;101227.78;5081429;28;20060;-82
2022/01/07 02:58:08;;;;;;;15.63;5.00;;;;;;;1.31;100.00;101236.34;5078423;28;20491;-82
2022/01/07 03:00:35;;;;;;;11.50;4.45;;;;;;;1.30;100.00;101231.16;5075603;28;20463;-82
2022/01/07 03:03:01;;;;;;;12.60;5.75;;;;;;;1.28;100.00;101232.84;5092661;28;20027;-82
2022/01/07 03:05:27;;;;;;;13.18;5.45;;;;;;;1.26;100.00;101221.66;5087191;28;20383;-82
2022/01/07 03:07:53;;;;;;;15.63;4.97;;;;;;;1.25;100.00;101225.94;5085483;28;20024;-82
2022/01/07 03:10:29;;;;;;;18.70;5.75;;;;;;;1.16;100.00;101218.91;5091808;28;20095;-82
2022/01/07 03:12:55;;;;;;;11.05;5.82;;;;;;;1.14;100.00;101218.03;5085112;28;20043;-82
2022/01/07 03:15:21;;;;;;;16.20;5.57;;;;;;;1.06;100.00;101211.84;5082106;28;20072;-82
2022/01/07 03:17:46;;;;;;;10.65;5.47;;;;;;;1.04;100.00;101207.50;5077009;28;20056;-82
2022/01/07 03:20:15;;;;;;;13.05;5.28;;;;;;;0.99;100.00;101197.16;5076660;28;20475;-82
2022/01/07 03:22:41;;;;;;;14.05;6.13;;;;;;;1.02;100.00;101202.34;5079353;28;20039;-82
2022/01/07 03:25:07;;;;;;;12.55;5.53;;;;;;;0.97;100.00;101201.38;5079757;28;20028;-82
2022/01/07 03:27:33;;;;;;;12.55;5.93;;;;;;;0.92;100.00;101183.31;5093770;28;20101;-82
2022/01/07 03:29:58;;;;;;;16.80;5.93;;;;;;;0.93;100.00;101191.88;5093443;28;20074;-82
2022/01/07 03:32:24;;;;;;;14.68;5.97;;;;;;;0.91;100.00;101184.13;5090629;28;20028;-82
2022/01/07 03:34:51;;;;;;;13.65;6.35;;;;;;;0.98;100.00;101184.25;5072928;28;20028;-82
2022/01/07 03:37:17;;;;;;;12.65;6.03;;;;;;;0.98;100.00;101186.81;5072494;28;20115;-82
2022/01/07 03:39:42;;;;;;;16.38;6.65;;;;;;;0.98;100.00;101181.69;5072770;28;20181;-82
2022/01/07 03:42:08;;;;;;;18.50;6.82;;;;;;;0.99;100.00;101186.88;5073358;28;20036;-83
2022/01/07 03:44:33;;;;;;;13.93;6.65;;;;;;;1.00;100.00;101173.19;5072609;28;20419;-82
2022/01/07 03:46:58;;;;;;;16.83;6.90;;;;;;;1.05;100.00;101181.88;5073472;28;20020;-82
2022/01/07 03:49:23;;;;;;;15.18;7.45;;;;;;;1.05;100.00;101178.44;5073257;28;20032;-82
2022/01/07 03:51:49;;;;;;;18.67;7.57;;;;;;;1.05;100.00;101179.31;5072626;28;20021;-82
2022/01/07 03:54:14;;;;;;;15.48;7.53;;;;;;;1.09;100.00;101177.66;5082957;28;20097;-82
2022/01/07 03:56:39;;;;;;;17.50;7.90;;;;;;;1.06;100.00;101169.91;5093495;28;20055;-82
2022/01/07 03:59:04;;;;;;;17.08;7.35;;;;;;;1.07;100.00;101176.75;5092850;28;20387;-83
2022/01/07 04:01:30;;;;;;;15.30;7.88;;;;;;;1.07;100.00;101164.78;5093076;28;20032;-83
2022/01/07 04:03:55;;;;;;;16.08;7.97;;;;;;;1.09;100.00;101155.41;5093276;28;20077;-83
2022/01/07 04:06:21;;;;;;;17.15;7.78;;;;;;;1.07;100.00;101144.22;5092633;28;20028;-82
2022/01/07 04:08:48;;;;;;;16.05;7.72;;;;;;;1.10;100.00;101153.72;5088910;28;20028;-82
2022/01/07 04:11:14;;;;;;;14.63;7.88;;;;;;;1.10;100.00;101154.56;5072697;28;20465;-83
2022/01/07 04:13:40;;;;;;;16.10;7.75;;;;;;;1.11;100.00;101151.19;5081001;28;20066;-83
2022/01/07 04:16:05;;;;;;;15.38;7.65;;;;;;;1.12;100.00;101145.22;5091063;28;20114;-83
2022/01/07 04:18:30;;;;;;;18.75;7.70;;;;;;;1.13;100.00;101146.94;5092341;28;20035;-83
2022/01/07 04:20:55;;;;;;;14.52;8.10;;;;;;;1.15;100.00;101152.13;5077599;28;20093;-82
2022/01/07 04:23:21;;;;;;;14.45;8.00;;;;;;;1.16;100.00;101149.56;5084688;28;20496;-82
2022/01/07 04:25:46;;;;;;;17.00;8.05;;;;;;;1.17;100.00;101145.28;5078270;28;20082;-82
2022/01/07 04:28:11;;;;;;;14.73;7.57;;;;;;;1.21;100.00;101138.50;5073081;28;20120;-82
2022/01/07 04:30:40;;;;;;;22.17;8.90;;;;;;;1.22;100.00;101147.97;5083776;28;20024;-82
2022/01/07 04:33:06;;;;;;;18.83;9.10;;;;;;;1.22;100.00;101143.69;5072455;28;20029;-83
2022/01/07 04:35:34;;;;;;;17.80;9.02;;;;;;;1.27;100.00;101147.19;5083981;28;20399;-83
2022/01/07 04:37:59;;;;;;;17.77;9.82;;;;;;;1.28;100.00;101148.09;5074865;28;20024;-82
2022/01/07 04:40:27;;;;;;;20.95;8.82;;;;;;;1.32;100.00;101144.72;5072490;28;20062;-82
2022/01/07 04:42:52;;;;;;;16.25;9.18;;;;;;;1.35;100.00;101157.63;5072770;28;20027;-82
2022/01/07 04:45:17;;;;;;;19.35;10.15;;;;;;;1.38;100.00;101145.72;5076377;28;20493;-83
2022/01/07 04:47:43;;;;;;;15.75;9.55;;;;;;;1.42;100.00;101156.06;5071771;28;20028;-82
2022/01/07 04:50:12;;;;;;;18.13;10.20;;;;;;;1.41;100.00;101144.91;5073233;28;20518;-82
2022/01/07 04:52:44;;;;;;;18.85;9.73;;;;;;;1.43;100.00;101142.34;5082604;28;20027;-82
2022/01/07 04:55:14;;;;;;;20.42;10.77;;;;;;;1.44;100.00;101144.97;5089007;28;20068;-82
2022/01/07 04:57:39;;;;;;;14.00;9.25;;;;;;;1.45;100.00;101135.56;5083160;28;20028;-82
2022/01/07 05:00:06;;;;;;;20.58;11.27;;;;;;;1.49;100.00;101143.34;5071755;28;20047;-82
2022/01/07 05:02:31;;;;;;;20.67;11.00;;;;;;;1.51;100.00;101144.25;5088425;28;20036;-82
2022/01/07 05:04:57;;;;;;;22.02;11.73;;;;;;;1.52;100.00;101134.81;5090290;28;20027;-82
2022/01/07 05:07:22;;;;;;;19.48;12.02;;;;;;;1.53;100.00;101127.13;5084555;28;20486;-82
2022/01/07 05:09:47;;;;;;;18.70;11.20;;;;;;;1.52;100.00;101117.69;5071130;28;20033;-83
2022/01/07 05:12:13;;;;;;;23.27;12.15;;;;;;;1.55;100.00;101122.03;5072157;28;20036;-82
2022/01/07 05:14:38;;;;;;;20.80;12.52;;;;;;;1.55;100.00;101116.88;5075051;28;20083;-81
2022/01/07 05:17:04;;;;;;;24.33;12.43;;;;;;;1.57;100.00;101121.22;5091204;28;20028;-82
2022/01/07 05:19:29;;;;;;;22.33;12.57;;;;;;;1.60;100.00;101111.00;5089422;28;20023;-82
2022/01/07 05:21:54;;;;;;;23.15;12.55;;;;;;;1.63;100.00;101105.91;5085843;28;20052;-82
2022/01/07 05:24:20;;;;;;;28.30;12.38;;;;;;;1.66;100.00;101114.50;5080208;28;20436;-82
2022/01/07 05:26:45;;;;;;;22.05;13.13;;;;;;;1.68;100.00;101117.97;5070744;28;20032;-82
2022/01/07 05:29:10;;;;;;;21.80;13.00;;;;;;;1.69;100.00;101114.56;5071645;28;20480;-83
2022/01/07 05:31:36;;;;;;;24.67;12.88;;;;;;;1.69;100.00;101105.13;5070649;28;20020;-83
2022/01/07 05:34:01;;;;;;;21.65;14.00;;;;;;;1.73;100.00;101111.19;5072952;28;20143;-83
2022/01/07 05:36:27;;;;;;;23.45;12.25;;;;;;;1.72;100.00;101112.91;5076121;28;20487;-82
2022/01/07 05:38:52;;;;;;;24.77;14.25;;;;;;;1.74;100.00;101118.09;5081305;28;20491;-82
2022/01/07 05:41:19;;;;;;;26.10;14.13;;;;;;;1.76;100.00;101106.09;5076522;28;20054;-82
2022/01/07 05:43:44;;;;;;;25.27;13.95;;;;;;;1.78;100.00;101101.88;5080079;28;20085;-82
2022/01/07 05:46:11;;;;;;;25.05;15.07;;;;;;;1.77;100.00;101095.00;5082123;28;20040;-82
2022/01/07 05:48:37;;;;;;;24.88;13.40;;;;;;;1.80;100.00;101108.78;5072008;28;20032;-82
2022/01/07 05:51:02;;;;;;;30.38;15.45;;;;;;;1.81;100.00;101100.22;5074434;28;20102;-83
2022/01/07 05:53:28;;;;;;;26.52;13.95;;;;;;;1.81;100.00;101104.50;5089086;28;20028;-83
2022/01/07 05:55:53;;;;;;;28.15;14.52;;;;;;;1.86;100.00;101111.44;5091343;28;20032;-82
2022/01/07 05:58:19;;;;;;;28.20;15.88;;;;;;;1.87;100.00;101104.59;5090772;28;20028;-82
2022/01/07 06:00:44;;;;;;;25.40;15.18;;;;;;;1.87;100.00;101090.03;5091336;28;20032;-82
2022/01/07 06:03:09;;;;;;;26.48;14.32;;;;;;;1.88;100.00;101096.88;5086702;28;20029;-83
2022/01/07 06:05:34;;;;;;;27.67;14.13;;;;;;;1.91;100.00;101096.06;5069652;28;20048;-83
2022/01/07 06:08:00;;;;;;;24.20;14.50;;;;;;;1.89;100.00;101097.75;5090732;28;20035;-82
2022/01/07 06:10:25;;;;;;;27.33;14.52;;;;;;;1.91;100.00;101090.06;5091007;28;20028;-83
2022/01/07 06:12:50;;;;;;;25.27;13.77;;;;;;;1.90;100.00;101093.47;5091228;28;20468;-82
2022/01/07 06:15:16;;;;;;;26.05;15.75;;;;;;;1.93;100.00;101098.66;5091080;28;20067;-83
2022/01/07 06:17:41;;;;;;;23.95;14.70;;;;;;;1.96;100.00;101103.84;5091005;28;20028;-82
2022/01/07 06:20:08;;;;;;;32.92;15.15;;;;;;;1.93;100.00;101099.56;5090725;28;20028;-83
2022/01/07 06:22:34;;;;;;;32.35;15.00;;;;;;;1.95;100.00;101099.56;5075813;28;20032;-83
2022/01/07 06:25:00;;;;;;;32.30;15.35;;;;;;;1.97;100.00;101093.59;5089196;28;20024;-83
2022/01/07 06:27:26;;;;;;;28.00;15.80;;;;;;;2.01;100.00;101097.09;5090373;28;20103;-82
2022/01/07 06:29:51;;;;;;;28.92;15.85;;;;;;;2.01;100.00;101104.81;5091490;28;20409;-82
2022/01/07 06:32:16;;;;;;;27.88;16.02;;;;;;;2.02;100.00;101104.81;5090790;28;20082;-83
2022/01/07 06:34:42;;;;;;;34.47;16.88;;;;;;;2.04;100.00;101102.28;5090384;28;20024;-82
2022/01/07 06:37:07;;;;;;;24.58;15.52;;;;;;;2.03;100.00;101093.72;5079196;28;20043;-82
2022/01/07 06:39:32;;;;;;;26.98;16.00;;;;;;;2.08;100.00;101101.47;5089666;28;20059;-83
2022/01/07 06:41:59;;;;;;;32.38;17.13;;;;;;;2.08;100.00;101106.63;5074034;28;20357;-82
2022/01/07 06:44:25;;;;;;;31.90;16.13;;;;;;;2.10;100.00;101107.53;5074012;28;20400;-82
2022/01/07 06:46:51;;;;;;;27.60;16.50;;;;;;;2.10;100.00;101108.38;5088303;28;20031;-83
2022/01/07 06:49:16;;;;;;;28.95;14.95;;;;;;;2.09;100.00;101091.22;5079850;28;20025;-82
2022/01/07 06:51:43;;;;;;;27.10;17.08;;;;;;;2.14;100.00;101105.88;5075326;28;20032;-82
2022/01/07 06:54:11;;;;;;;28.05;16.35;;;;;;;2.17;100.00;101105.91;5089009;28;20068;-83
2022/01/07 06:56:40;;;;;;;32.00;16.55;;;;;;;2.16;100.00;101096.44;5091059;28;20024;-83
2022/01/07 06:59:06;;;;;;;30.65;16.88;;;;;;;2.18;100.00;101102.47;5078783;28;20121;-82
2022/01/07 07:01:31;;;;;;;33.55;18.75;;;;;;;2.19;100.00;101102.53;5083389;28;20064;-82
2022/01/07 07:03:56;;;;;;;30.67;18.25;;;;;;;2.21;100.00;101097.38;5082924;28;20370;-83
2022/01/07 07:06:21;;;;;;;27.35;15.95;;;;;;;2.18;100.00;101090.47;5093989;28;20036;-83
2022/01/07 07:08:47;;;;;;;32.38;16.67;;;;;;;2.21;100.00;101090.53;5080520;28;20032;-83
2022/01/07 07:11:12;;;;;;;30.85;17.50;;;;;;;2.24;100.00;101100.00;5074127;28;20027;-83
2022/01/07 07:13:37;;;;;;;35.17;17.05;;;;;;;2.25;100.00;101096.59;5081744;28;20024;-83
2022/01/07 07:16:03;;;;;;;30.45;16.63;;;;;;;2.27;100.00;101106.06;5093844;28;20093;-83
2022/01/07 07:18:28;;;;;;;33.65;16.48;;;;;;;2.30;100.00;101102.66;5093691;28;20031;-83
2022/01/07 07:20:53;;;;;;;31.70;17.25;;;;;;;2.30;100.00;101110.41;5082665;28;20533;-83
2022/01/07 07:23:19;;;;;;;30.80;16.35;;;;;;;2.36;100.00;101110.47;5073986;28;20035;-83
2022/01/07 07:25:44;;;;;;;30.58;17.80;;;;;;;2.35;100.00;101106.16;5094173;28;20599;-83
2022/01/07 07:28:09;;;;;;;27.95;18.15;;;;;;;2.34;100.00;101110.44;5093840;28;20012;-83
2022/01/07 07:30:38;;;;;;;33.90;17.58;;;;;;;2.37;100.00;101101.91;5093028;28;20030;-83
2022/01/07 07:33:30;;;;;;;28.15;16.17;;;;;;;2.37;100.00;101107.06;5093956;28;20035;-83
2022/01/07 07:38:39;;;;;;;32.20;18.35;;;;;;;2.40;100.00;101113.97;5088478;28;20051;-83
2022/01/07 07:41:06;;;;;;;27.65;16.90;;;;;;;2.40;100.00;101111.38;5079169;28;20395;-83
2022/01/07 07:43:32;;;;;;;34.05;16.42;;;;;;;2.42;100.00;101110.56;5077280;28;20464;-82
2022/01/07 07:45:58;;;;;;;29.23;17.48;;;;;;;2.41;100.00;101097.66;5095607;28;20036;-82
2022/01/07 07:48:23;;;;;;;29.88;16.80;;;;;;;2.41;100.00;101098.53;5087026;28;20058;-83
2022/01/07 07:50:48;;;;;;;33.22;18.13;;;;;;;2.43;100.00;101081.41;5073101;28;20020;-83
2022/01/07 07:53:13;;;;;;;33.15;16.90;;;;;;;2.46;100.00;101096.03;5080904;28;20050;-82
2022/01/07 07:55:39;;;;;;;32.97;18.05;;;;;;;2.47;100.00;101100.34;5088741;28;20044;-82
2022/01/07 07:58:04;;;;;;;36.70;18.83;;;;;;;2.51;100.00;101095.22;5078931;28;20512;-83
2022/01/07 08:00:31;;;;;;;32.78;16.90;;;;;;;2.47;100.00;101103.75;5073600;28;20085;-83
2022/01/07 08:02:57;;;;;;;32.60;16.40;;;;;;;2.50;100.00;101111.53;5072909;28;20029;-83
2022/01/07 08:05:23;;;;;;;30.42;17.38;;;;;;;2.56;100.00;101106.47;5075521;28;20494;-83
2022/01/07 08:07:48;;;;;;;33.38;17.50;;;;;;;2.56;100.00;101109.03;5081601;28;20044;-83
2022/01/07 08:10:13;;;;;;;34.00;17.23;;;;;;;2.60;100.00;101111.66;5072816;28;20101;-83
2022/01/07 08:13:27;;;;;;;36.95;18.38;;;;;;;2.58;100.00;101102.22;5071966;28;20033;-83
2022/01/07 08:15:58;;;;;;;30.83;17.33;;;;;;;2.62;100.00;101095.41;5072181;28;20040;-83
2022/01/07 08:18:35;;;;;;;31.58;16.40;;;;;;;2.64;100.00;101101.41;5087108;28;20051;-83
2022/01/07 08:21:03;;;;;;;32.92;16.70;;;;;;;2.62;100.00;101092.81;5076245;28;20074;-83
2022/01/07 08:23:32;;;;;;;37.92;18.05;;;;;;;2.64;100.00;101093.69;5072763;28;20027;-83
2022/01/07 08:25:58;;;;;;;32.08;16.60;;;;;;;2.64;100.00;101083.41;5092671;28;20068;-83
2022/01/07 08:28:27;;;;;;;36.67;17.13;;;;;;;2.64;100.00;101072.25;5091737;28;20391;-82
2022/01/07 08:31:01;;;;;;;34.70;17.23;;;;;;;2.61;100.00;101074.78;5092744;28;20027;-82
2022/01/07 08:36:13;;;;;;;32.35;16.17;;;;;;;2.61;100.00;101078.22;5093303;28;20066;-82
2022/01/07 08:38:39;;;;;;;34.10;17.30;;;;;;;2.57;100.00;101074.72;5077302;28;20127;-83
2022/01/07 08:41:05;;;;;;;29.58;16.73;;;;;;;2.63;100.00;101073.09;5081731;28;20563;-83
2022/01/07 08:43:31;;;;;;;33.92;17.08;;;;;;;2.66;100.00;101073.13;5080212;28;20054;-82
2022/01/07 08:45:56;;;;;;;36.60;16.67;;;;;;;2.67;100.00;101077.44;5072109;28;20024;-83
2022/01/07 08:48:22;;;;;;;36.70;17.33;;;;;;;2.70;100.00;101080.03;5078067;28;20111;-82
2022/01/07 08:50:47;;;;;;;28.88;16.42;;;;;;;2.73;100.00;101088.66;5088339;28;20028;-83
2022/01/07 08:53:13;;;;;;;34.35;16.60;;;;;;;2.75;100.00;101088.69;5090332;28;20387;-83
2022/01/07 08:55:38;;;;;;;31.77;16.77;;;;;;;2.79;100.00;101095.59;5081941;28;20040;-83
2022/01/07 08:58:05;;;;;;;29.85;16.40;;;;;;;2.79;100.00;101098.19;5089297;28;20040;-85
2022/01/07 09:00:31;;;;;;;31.30;17.02;;;;;;;2.85;100.00;101099.97;5087007;28;20035;-82
2022/01/07 09:02:56;;;;;;;25.23;16.27;;;;;;;2.87;100.00;101100.84;5081670;28;20029;-83
2022/01/07 09:05:22;;;;;;;29.77;15.85;;;;;;;2.86;100.00;101099.13;5085704;28;20491;-83
2022/01/07 09:07:47;;;;;;;29.23;16.38;;;;;;;2.80;100.00;101090.47;5090056;28;20079;-83
2022/01/07 09:10:12;;;;;;;30.50;15.50;;;;;;;2.81;100.00;101091.31;5075316;28;20366;-83
2022/01/07 09:12:37;;;;;;;32.42;15.63;;;;;;;2.86;100.00;101106.84;5082216;28;20024;-83
2022/01/07 09:15:03;;;;;;;31.65;17.63;;;;;;;2.87;100.00;101101.69;5091243;28;20101;-85
2022/01/07 09:17:30;;;;;;;30.00;15.60;;;;;;;2.85;100.00;101100.84;5086290;28;20464;-83
2022/01/07 09:19:55;;;;;;;26.33;15.25;;;;;;;2.85;100.00;101100.84;5079670;28;20039;-82
2022/01/07 09:22:21;;;;;;;28.58;15.82;;;;;;;2.85;100.00;101089.69;5088982;28;20024;-82
2022/01/07 09:24:46;;;;;;;30.15;15.45;;;;;;;2.86;100.00;101089.69;5079726;28;20040;-83
2022/01/07 09:27:11;;;;;;;20.58;12.25;;;;;;;2.92;100.00;101089.75;5091996;28;20020;-83
2022/01/07 09:29:37;;;;;;;24.33;14.63;;;;;;;2.99;100.00;101086.41;5078272;28;20032;-83
2022/01/07 09:32:03;;;;;;;26.65;14.88;;;;;;;3.12;100.00;101094.28;5072264;28;20102;-84
2022/01/07 09:34:28;;;;;;;26.73;14.73;;;;;;;3.16;100.00;101085.72;5091408;28;20036;-83
2022/01/07 09:36:53;;;;;;;23.98;13.30;;;;;;;3.18;100.00;101081.47;5074705;28;21565;-83
2022/01/07 09:39:19;;;;;;;24.48;13.95;;;;;;;3.11;100.00;101082.25;5081557;28;20032;-84
2022/01/07 09:41:45;;;;;;;22.52;13.27;;;;;;;3.08;100.00;101075.34;5091090;28;20361;-83
2022/01/07 09:44:11;;;;;;;24.83;13.35;;;;;;;3.12;100.00;101082.25;5090335;28;20123;-83
2022/01/07 09:46:36;;;;;;;22.00;13.65;;;;;;;3.14;100.00;101087.41;5072774;28;20090;-83
2022/01/07 09:49:04;;;;;;;23.65;13.48;;;;;;;3.09;100.00;101083.94;5077412;28;20047;-84
2022/01/07 09:51:32;;;;;;;19.42;12.13;;;;;;;3.17;100.00;101087.44;5087170;28;20020;-82
2022/01/07 09:54:03;;;;;;;24.17;13.38;;;;;;;3.21;100.00;101084.06;5089622;28;20044;-83
2022/01/07 09:56:28;;;;;;;22.98;13.27;;;;;;;3.32;100.00;101072.16;5071793;28;20029;-84
2022/01/07 09:58:53;;;;;;;21.63;13.30;;;;;;;3.40;100.00;101077.38;5070884;28;20048;-85
2022/01/07 10:01:20;;;;;;;21.15;13.18;;;;;;;3.37;100.00;101067.91;5077290;28;20028;-85
2022/01/07 10:03:45;;;;;;;20.52;11.80;;;;;;;3.39;100.00;101066.19;5090949;28;20024;-84
2022/01/07 10:06:21;;;;;;;23.20;12.55;;;;;;;3.31;100.00;101060.13;5071894;28;20028;-84
2022/01/07 10:09:10;;;;;;;19.58;11.82;;;;;;;3.34;100.00;101077.34;5071175;28;20063;-85
2022/01/07 10:11:35;;;;;;;18.75;12.32;;;;;;;3.42;100.00;101073.97;5088497;28;20073;-84
2022/01/07 10:14:22;;;;;;;24.35;11.40;;;;;;;3.49;100.00;101080.03;5095608;28;20024;-84
2022/01/07 10:16:55;;;;;;;24.23;11.35;;;;;;;3.50;100.00;101062.03;5093289;28;20028;-83
2022/01/07 10:19:30;;;;;;;;;;;;;;;3.59;100.00;101071.53;5074924;28;20023;-84
2022/01/07 10:22:13;;;;;;;19.88;10.95;;;;;;;3.53;100.00;101061.16;5075378;28;19969;-83
2022/01/07 10:24:54;;;;;;;17.95;10.52;;;;;;;3.56;100.00;101070.66;5074121;28;20037;-84
2022/01/07 10:27:20;;;;;;;20.52;10.40;;;;;;;3.56;100.00;101068.94;5078305;28;20066;-84
2022/01/07 10:29:45;;;;;;;18.27;10.68;;;;;;;3.45;100.00;101057.66;5094099;28;20108;-84
2022/01/07 10:32:19;;;;;;;17.98;9.98;;;;;;;3.40;100.00;101054.16;5082566;28;20024;-83
2022/01/07 10:35:01;;;;;;;15.98;10.07;;;;;;;3.28;100.00;101050.66;5082738;28;20101;-84
2022/01/07 10:37:26;;;;;;;17.98;10.02;;;;;;;3.26;100.00;101062.63;5085012;28;20119;-83
2022/01/07 10:39:51;;;;;;;20.42;9.57;;;;;;;3.26;100.00;101056.63;5075219;28;20539;-83
2022/01/07 10:42:24;;;;;;;17.92;11.18;;;;;;;3.33;100.00;101053.25;5074511;28;20461;-90
2022/01/07 10:45:04;;;;;;;18.15;9.43;;;;;;;3.33;100.00;101045.53;5074460;28;20563;-83
2022/01/07 10:47:29;;;;;;;19.15;9.00;;;;;;;3.36;100.00;101047.28;5079066;28;20051;-83
2022/01/07 10:50:27;;;;;;;22.40;9.93;;;;;;;3.39;100.00;101042.16;5081361;28;20032;-83
2022/01/07 10:53:13;;;;;;;18.83;8.95;;;;;;;3.39;100.00;101037.84;5080433;28;20067;-83
2022/01/07 10:55:39;;;;;;;15.00;9.18;;;;;;;3.46;100.00;101047.34;5081094;28;20051;-83
2022/01/07 10:58:04;;;;;;;15.05;9.35;;;;;;;3.62;100.00;101048.34;5088920;28;20103;-83
2022/01/07 11:00:36;;;;;;;16.23;9.48;;;;;;;3.73;100.00;101043.31;5074062;28;20384;-83
2022/01/07 11:03:07;;;;;;;18.05;9.10;;;;;;;3.74;100.00;101030.41;5075387;28;20029;-84
2022/01/07 11:05:32;;;;;;;22.13;8.85;;;;;;;3.88;100.00;101029.66;5073407;28;20108;-84
2022/01/07 11:07:59;;;;;;;17.48;8.93;;;;;;;3.90;100.00;101041.72;5076968;28;20446;-83
2022/01/07 11:10:25;;;;;;;17.00;8.57;;;;;;;3.89;100.00;101034.84;5073893;28;20025;-84
2022/01/07 11:12:51;;;;;;;15.07;8.90;;;;;;;3.91;100.00;101022.78;5087526;28;20561;-83
2022/01/07 11:15:16;;;;;;;13.23;8.45;;;;;;;3.95;100.00;101029.69;5074368;28;20021;-84
2022/01/07 11:17:42;;;;;;;12.48;8.45;;;;;;;4.07;100.00;101034.06;5089266;28;20030;-83